createdAt,value
2018-04-01T03:23:53.397Z,8.37
2018-04-01T03:24:53.367Z,8.33
2018-04-01T03:25:53.367Z,8.45
2018-04-01T03:26:53.395Z,8.40
2018-04-01T03:27:53.332Z,8.37
2018-04-01T03:28:53.315Z,8.42
2018-04-01T03:29:53.307Z,8.44
2018-04-01T03:30:53.296Z,8.30
2018-04-01T03:31:53.291Z,8.37
2018-04-01T03:32:53.307Z,8.50
2018-04-01T03:33:53.275Z,8.55
2018-04-01T03:34:53.275Z,8.55
2018-04-01T03:35:53.271Z,8.40
2018-04-01T03:36:53.297Z,8.47
2018-04-01T03:37:53.253Z,8.42
2018-04-01T03:38:53.238Z,8.47
2018-04-01T03:39:53.232Z,8.51
2018-04-01T03:40:53.227Z,8.50
2018-04-01T03:41:53.219Z,8.48
2018-04-01T03:42:53.223Z,8.55
2018-04-01T03:43:53.212Z,8.66
2018-04-01T03:44:53.204Z,8.62
2018-04-01T03:45:53.189Z,8.53
2018-04-01T03:46:53.190Z,8.55
2018-04-01T03:47:53.211Z,8.58
2018-04-01T03:48:53.175Z,8.53
2018-04-01T03:49:53.180Z,8.54
2018-04-01T03:50:53.169Z,8.62
2018-04-01T03:51:53.173Z,8.62
2018-04-01T03:52:53.152Z,8.72
2018-04-01T03:53:53.143Z,8.65
2018-04-01T03:54:53.140Z,8.65
2018-04-01T03:55:53.138Z,8.55
2018-04-01T03:56:53.163Z,8.69
2018-04-01T03:57:53.122Z,8.71
2018-04-01T03:58:53.113Z,8.71
2018-04-01T03:59:53.106Z,8.58
2018-04-01T04:00:53.104Z,8.62
2018-04-01T04:01:53.099Z,8.62
2018-04-01T04:02:53.100Z,8.75
2018-04-01T04:03:53.098Z,8.63
2018-04-01T04:04:53.082Z,8.63
2018-04-01T04:05:53.107Z,8.75
2018-04-01T04:06:53.064Z,8.62
2018-04-01T04:07:53.070Z,8.69
2018-04-01T04:08:53.064Z,8.69
2018-04-01T04:09:53.050Z,8.68
2018-04-01T04:10:53.046Z,8.65
2018-04-01T04:11:53.050Z,8.76
2018-04-01T04:12:53.040Z,8.62
2018-04-01T04:13:53.027Z,8.68
2018-04-01T04:14:53.039Z,8.65
2018-04-01T04:15:53.016Z,8.69
2018-04-01T04:16:53.009Z,8.54
2018-04-01T04:17:53.020Z,8.66
2018-04-01T04:18:53.015Z,8.63
2018-04-01T04:19:53.002Z,8.68
2018-04-01T04:20:52.998Z,8.63
2018-04-01T04:21:52.983Z,8.73
2018-04-01T04:22:53.019Z,8.60
2018-04-01T04:23:52.985Z,8.72
2018-04-01T04:24:52.967Z,8.69
2018-04-01T04:25:52.963Z,8.63
2018-04-01T04:26:52.960Z,8.63
2018-04-01T04:27:52.955Z,8.63
2018-04-01T04:28:52.953Z,8.81
2018-04-01T04:29:52.939Z,8.63
2018-04-01T04:30:52.928Z,8.69
2018-04-01T04:31:52.943Z,8.68
2018-04-01T04:32:52.936Z,8.66
2018-04-01T04:33:52.911Z,8.66
2018-04-01T04:34:52.903Z,8.76
2018-04-01T04:35:52.931Z,8.72
2018-04-01T04:36:52.914Z,8.72
2018-04-01T04:37:52.892Z,8.66
2018-04-01T04:38:52.889Z,8.71
2018-04-01T04:39:52.899Z,8.72
2018-04-01T04:40:52.881Z,8.55
2018-04-01T04:41:52.876Z,8.72
2018-04-01T04:42:52.862Z,8.72
2018-04-01T04:43:52.864Z,8.68
2018-04-01T04:44:52.862Z,8.63
2018-04-01T04:45:52.853Z,8.62
2018-04-01T04:46:52.851Z,8.72
2018-04-01T04:47:52.842Z,8.65
2018-04-01T04:48:52.837Z,8.55
2018-04-01T04:49:52.829Z,8.63
2018-04-01T04:50:52.822Z,8.83
2018-04-01T04:51:52.810Z,8.75
2018-04-01T04:52:52.815Z,8.86
2018-04-01T04:53:52.820Z,8.76
2018-04-01T04:54:52.801Z,8.60
2018-04-01T04:55:52.794Z,8.58
2018-04-01T04:56:52.786Z,8.62
2018-04-01T04:57:52.776Z,8.58
2018-04-01T04:58:52.767Z,8.71
2018-04-01T04:59:52.768Z,8.66
2018-04-01T05:00:52.773Z,8.72
2018-04-01T05:01:52.802Z,8.73
2018-04-01T05:02:52.777Z,8.78
2018-04-01T05:03:52.756Z,8.72
2018-04-01T05:04:52.737Z,8.62
2018-04-01T05:05:52.735Z,8.69
2018-04-01T05:06:52.721Z,8.78
2018-04-01T05:07:52.717Z,8.72
2018-04-01T05:08:52.715Z,8.76
2018-04-01T05:09:52.736Z,8.69
2018-04-01T05:10:52.702Z,8.71
2018-04-01T05:11:52.701Z,8.81
2018-04-01T05:12:52.690Z,8.71
2018-04-01T05:13:52.680Z,8.65
2018-04-01T05:14:52.674Z,8.60
2018-04-01T05:15:52.681Z,8.62
2018-04-01T05:16:52.678Z,8.68
2018-04-01T05:17:52.667Z,8.68
2018-04-01T05:18:52.667Z,8.66
2018-04-01T05:19:52.656Z,8.72
2018-04-01T05:20:52.644Z,8.68
2018-04-01T05:21:52.637Z,8.66
2018-04-01T05:22:52.626Z,8.72
2018-04-01T05:23:52.625Z,8.60
2018-04-01T05:24:52.629Z,8.68
2018-04-01T05:25:52.614Z,8.62
2018-04-01T05:26:52.650Z,8.63
2018-04-01T05:27:52.615Z,8.63
2018-04-01T05:28:52.592Z,8.66
2018-04-01T05:29:52.593Z,8.63
2018-04-01T05:30:52.580Z,8.66
2018-04-01T05:31:52.579Z,8.63
2018-04-01T05:32:52.570Z,8.58
2018-04-01T05:33:52.571Z,8.66
2018-04-01T05:34:52.576Z,8.71
2018-04-01T05:37:14.179Z,8.69
2018-04-01T05:38:13.784Z,8.75
2018-04-01T05:39:13.752Z,8.81
2018-04-01T05:40:13.746Z,8.78
2018-04-01T05:41:13.743Z,8.73
2018-04-01T05:42:13.737Z,8.76
2018-04-01T05:43:23.134Z,8.78
2018-04-01T05:45:07.142Z,8.78
2018-04-01T05:46:07.113Z,8.66
2018-04-01T05:47:07.108Z,8.63
2018-04-01T05:48:07.104Z,8.69
2018-04-01T05:49:07.102Z,8.71
2018-04-01T05:50:07.120Z,8.65
2018-04-01T05:51:07.146Z,8.65
2018-04-01T05:52:07.091Z,8.71
2018-04-01T05:53:07.074Z,8.75
2018-04-01T05:54:07.075Z,8.81
2018-04-01T05:55:07.066Z,8.84
2018-04-01T05:56:07.056Z,8.87
2018-04-01T05:57:07.054Z,8.91
2018-04-01T05:58:07.054Z,8.86
2018-04-01T05:59:07.040Z,8.91
2018-04-01T06:00:07.036Z,8.91
2018-04-01T06:01:07.033Z,8.90
2018-04-01T06:02:07.022Z,8.93
2018-04-01T06:03:07.020Z,8.99
2018-04-01T06:04:07.012Z,8.94
2018-04-01T06:05:07.004Z,8.99
2018-04-01T06:06:07.007Z,8.86
2018-04-01T06:07:06.996Z,8.87
2018-04-01T06:08:06.992Z,8.91
2018-04-01T06:09:06.997Z,8.97
2018-04-01T06:10:06.982Z,8.93
2018-04-01T06:11:06.973Z,8.88
2018-04-01T06:12:06.972Z,8.84
2018-04-01T06:13:06.958Z,8.75
2018-04-01T06:14:06.963Z,8.75
2018-04-01T06:15:06.978Z,8.78
2018-04-01T06:16:06.973Z,8.91
2018-04-01T06:17:06.940Z,8.81
2018-04-01T06:18:06.933Z,8.81
2018-04-01T06:19:06.931Z,8.86
2018-04-01T06:20:06.920Z,8.79
2018-04-01T06:21:06.923Z,8.78
2018-04-01T06:22:06.931Z,8.88
2018-04-01T06:23:06.926Z,8.75
2018-04-01T06:24:06.899Z,8.78
2018-04-01T06:25:06.898Z,8.71
2018-04-01T06:26:06.890Z,8.75
2018-04-01T06:27:06.901Z,8.79
2018-04-01T06:28:06.874Z,8.69
2018-04-01T06:29:06.866Z,8.76
2018-04-01T06:30:06.872Z,8.90
2018-04-01T06:31:06.902Z,8.91
2018-04-01T06:32:06.864Z,8.86
2018-04-01T06:33:06.856Z,8.90
2018-04-01T06:34:06.844Z,8.81
2018-04-01T06:35:06.852Z,8.78
2018-04-01T06:36:06.832Z,8.83
2018-04-01T06:37:06.827Z,8.68
2018-04-01T06:38:06.822Z,8.86
2018-04-01T06:39:06.816Z,8.73
2018-04-01T06:40:06.871Z,8.91
2018-04-01T06:41:06.805Z,8.88
2018-04-01T06:42:06.794Z,8.99
2018-04-01T06:43:06.800Z,8.96
2018-04-01T06:44:06.788Z,9.02
2018-04-01T06:45:06.786Z,9.09
2018-04-01T06:46:06.771Z,9.06
2018-04-01T06:47:06.770Z,9.05
2018-04-01T06:48:06.778Z,9.06
2018-04-01T06:49:06.755Z,9.13
2018-04-01T06:50:06.756Z,9.09
2018-04-01T06:51:06.748Z,9.09
2018-04-01T06:52:06.746Z,9.04
2018-04-01T06:53:06.737Z,8.99
2018-04-01T06:54:06.733Z,9.13
2018-04-01T06:55:06.732Z,9.15
2018-04-01T06:56:06.726Z,9.09
2018-04-01T06:57:06.710Z,8.86
2018-04-01T06:58:06.712Z,8.97
2018-04-01T06:59:06.698Z,9.04
2018-04-01T07:00:06.698Z,9.09
2018-04-01T07:01:06.688Z,9.13
2018-04-01T07:02:06.694Z,9.21
2018-04-01T07:03:06.682Z,9.32
2018-04-01T07:04:06.708Z,9.18
2018-04-01T07:05:06.683Z,8.97
2018-04-01T07:06:06.673Z,9.05
2018-04-01T07:07:06.658Z,9.23
2018-04-01T07:08:06.702Z,9.20
2018-04-01T07:09:06.647Z,9.21
2018-04-01T07:10:06.646Z,9.21
2018-04-01T07:11:06.634Z,9.21
2018-04-01T07:12:06.645Z,9.18
2018-04-01T07:13:06.630Z,9.39
2018-04-01T07:14:06.649Z,9.18
2018-04-01T07:15:06.611Z,9.13
2018-04-01T07:16:06.605Z,8.94
2018-04-01T07:17:06.692Z,9.02
2018-04-01T07:18:06.600Z,9.12
2018-04-01T07:19:06.590Z,8.88
2018-04-01T07:20:06.599Z,8.96
2018-04-01T07:21:06.620Z,8.99
2018-04-01T07:22:06.594Z,8.88
2018-04-01T07:23:06.563Z,8.99
2018-04-01T07:24:06.564Z,8.93
2018-04-01T07:25:06.566Z,8.96
2018-04-01T07:26:06.564Z,9.10
2018-04-01T07:27:06.555Z,8.94
2018-04-01T07:28:06.543Z,9.10
2018-04-01T07:29:06.660Z,9.12
2018-04-01T07:30:06.559Z,8.97
2018-04-01T07:31:06.534Z,8.91
2018-04-01T07:32:06.574Z,8.91
2018-04-01T07:33:06.518Z,9.05
2018-04-01T07:34:06.507Z,8.90
2018-04-01T07:35:06.543Z,9.05
2018-04-01T07:36:06.532Z,8.96
2018-04-01T07:37:06.508Z,9.01
2018-04-01T07:38:06.569Z,9.05
2018-04-01T07:39:06.610Z,9.06
2018-04-01T07:40:06.555Z,9.04
2018-04-01T07:41:06.474Z,9.27
2018-04-01T07:42:06.488Z,9.28
2018-04-01T07:43:06.456Z,9.40
2018-04-01T07:44:06.505Z,9.27
2018-04-01T07:45:06.457Z,9.23
2018-04-01T07:46:06.453Z,9.21
2018-04-01T07:47:06.434Z,9.24
2018-04-01T07:48:06.428Z,9.16
2018-04-01T07:49:06.424Z,9.13
2018-04-01T07:50:06.473Z,9.12
2018-04-01T07:51:06.438Z,9.09
2018-04-01T07:52:06.409Z,9.20
2018-04-01T07:53:06.408Z,9.09
2018-04-01T07:54:06.410Z,9.38
2018-04-01T07:55:06.454Z,9.32
2018-04-01T07:56:06.387Z,9.39
2018-04-01T07:57:15.047Z,9.46
2018-04-01T07:59:00.496Z,9.18
2018-04-01T08:00:00.931Z,9.24
2018-04-01T08:00:59.994Z,9.23
2018-04-01T08:01:59.987Z,9.16
2018-04-01T08:03:00.236Z,9.12
2018-04-01T08:03:59.954Z,8.99
2018-04-01T08:04:59.959Z,8.94
2018-04-01T08:05:59.948Z,8.99
2018-04-01T08:06:59.947Z,9.24
2018-04-01T08:08:00.049Z,9.21
2018-04-01T08:08:59.962Z,9.31
2018-04-01T08:09:59.923Z,9.40
2018-04-01T08:10:59.990Z,9.28
2018-04-01T08:12:00.028Z,9.10
2018-04-01T08:12:59.981Z,9.05
2018-04-01T08:13:59.980Z,9.15
2018-04-01T08:15:00.762Z,8.97
2018-04-01T08:15:59.932Z,8.81
2018-04-01T08:16:59.915Z,8.71
2018-04-01T08:17:59.925Z,8.62
2018-04-01T08:19:00.119Z,8.79
2018-04-01T08:19:59.879Z,8.71
2018-04-01T08:20:59.975Z,8.71
2018-04-01T08:21:59.861Z,8.65
2018-04-01T08:22:59.874Z,8.55
2018-04-01T08:23:59.970Z,8.63
2018-04-01T08:24:59.902Z,8.69
2018-04-01T08:25:59.860Z,8.66
2018-04-01T08:26:59.854Z,8.62
2018-04-01T08:27:59.830Z,8.58
2018-04-01T08:28:59.817Z,8.66
2018-04-01T08:29:59.821Z,8.71
2018-04-01T08:30:59.808Z,8.68
2018-04-01T08:31:59.819Z,8.68
2018-04-01T08:34:20.852Z,8.62
2018-04-01T08:35:20.840Z,8.58
2018-04-01T08:36:20.848Z,8.63
2018-04-01T08:37:29.476Z,8.75
2018-04-01T08:39:15.215Z,8.57
2018-04-01T08:41:36.252Z,8.63
2018-04-01T08:42:36.231Z,8.54
2018-04-01T08:43:36.243Z,8.47
2018-04-01T08:44:36.249Z,8.47
2018-04-01T08:45:36.245Z,8.44
2018-04-01T08:46:36.208Z,8.40
2018-04-01T08:47:36.203Z,8.47
2018-04-01T08:48:36.200Z,8.42
2018-04-01T08:49:36.222Z,8.39
2018-04-01T08:50:36.185Z,8.42
2018-04-01T08:51:36.194Z,8.40
2018-04-01T08:52:36.171Z,8.37
2018-04-01T08:53:36.192Z,8.33
2018-04-01T08:54:36.190Z,8.48
2018-04-01T08:55:36.158Z,8.42
2018-04-01T08:56:36.154Z,8.57
2018-04-01T08:57:36.158Z,8.75
2018-04-01T08:58:36.143Z,8.91
2018-04-01T08:59:36.203Z,8.81
2018-04-01T09:00:36.140Z,8.86
2018-04-01T09:01:36.140Z,8.96
2018-04-01T09:02:36.127Z,8.86
2018-04-01T09:03:36.122Z,8.83
2018-04-01T09:04:36.110Z,8.86
2018-04-01T09:05:36.108Z,8.76
2018-04-01T09:06:36.098Z,8.78
2018-04-01T09:07:36.093Z,8.93
2018-04-01T09:08:36.089Z,8.91
2018-04-01T09:09:36.105Z,8.86
2018-04-01T09:10:36.107Z,8.94
2018-04-01T09:11:36.073Z,8.91
2018-04-01T09:12:36.065Z,9.10
2018-04-01T09:13:36.061Z,8.97
2018-04-01T09:14:36.060Z,9.13
2018-04-01T09:15:36.055Z,9.20
2018-04-01T09:16:36.051Z,9.25
2018-04-01T09:17:36.039Z,9.40
2018-04-01T09:18:36.057Z,9.39
2018-04-01T09:19:36.041Z,9.25
2018-04-01T09:20:36.019Z,9.24
2018-04-01T09:21:36.024Z,9.16
2018-04-01T09:22:36.017Z,8.96
2018-04-01T09:23:36.009Z,9.06
2018-04-01T09:24:44.654Z,9.20
2018-04-01T09:26:29.405Z,9.35
2018-04-01T09:27:29.408Z,9.21
2018-04-01T09:28:29.377Z,9.30
2018-04-01T09:29:29.377Z,9.09
2018-04-01T09:31:50.477Z,9.35
2018-04-01T09:32:58.079Z,9.38
2018-04-01T09:33:59.145Z,9.45
2018-04-01T09:35:53.909Z,9.45
2018-04-01T09:36:52.497Z,9.45
2018-04-01T09:38:37.774Z,9.49
2018-04-01T09:40:58.249Z,9.57
2018-04-01T09:41:58.274Z,9.60
2018-04-01T09:43:06.883Z,9.64
2018-04-01T09:44:51.673Z,9.40
2018-04-01T09:45:59.274Z,9.30
2018-04-01T09:47:00.254Z,9.25
2018-04-01T09:48:44.950Z,9.12
2018-04-01T09:49:44.951Z,8.91
2018-04-01T09:51:38.370Z,8.51
2018-04-01T09:52:38.328Z,8.29
2018-04-01T09:53:38.325Z,8.14
2018-04-01T09:54:40.183Z,8.22
2018-04-01T09:55:38.336Z,8.18
2018-04-01T09:56:38.311Z,8.22
2018-04-01T09:57:38.396Z,8.21
2018-04-01T09:58:38.309Z,8.21
2018-04-01T09:59:38.286Z,8.29
2018-04-01T10:00:38.331Z,8.29
2018-04-01T10:01:38.321Z,8.50
2018-04-01T10:02:38.304Z,8.65
2018-04-01T10:03:38.264Z,8.69
2018-04-01T10:04:38.256Z,8.73
2018-04-01T10:05:38.255Z,8.51
2018-04-01T10:06:38.260Z,8.51
2018-04-01T10:07:38.241Z,8.72
2018-04-01T10:08:38.244Z,8.91
2018-04-01T10:09:38.243Z,8.71
2018-04-01T10:10:38.262Z,8.79
2018-04-01T10:11:38.237Z,8.66
2018-04-01T10:12:38.217Z,8.79
2018-04-01T10:13:38.213Z,8.87
2018-04-01T10:14:38.211Z,8.93
2018-04-01T10:15:38.208Z,9.06
2018-04-01T10:16:38.196Z,9.25
2018-04-01T10:17:38.210Z,9.06
2018-04-01T10:18:38.214Z,9.21
2018-04-01T10:19:38.198Z,9.34
2018-04-01T10:20:38.167Z,9.42
2018-04-01T10:21:38.167Z,9.23
2018-04-01T10:22:38.177Z,9.20
2018-04-01T10:23:38.168Z,9.45
2018-04-01T10:24:38.154Z,9.34
2018-04-01T10:25:38.174Z,9.46
2018-04-01T10:26:38.199Z,9.39
2018-04-01T10:27:38.140Z,9.20
2018-04-01T10:28:38.157Z,9.35
2018-04-01T10:29:38.138Z,9.42
2018-04-01T10:30:38.113Z,9.73
2018-04-01T10:31:38.132Z,10.01
2018-04-01T10:32:38.120Z,9.85
2018-04-01T10:33:38.130Z,10.00
2018-04-01T10:34:38.147Z,9.70
2018-04-01T10:35:46.744Z,9.66
2018-04-01T10:37:32.607Z,9.73
2018-04-01T10:38:32.532Z,9.88
2018-04-01T10:39:32.493Z,10.06
2018-04-01T10:40:32.526Z,9.96
2018-04-01T10:41:32.466Z,9.94
2018-04-01T10:42:32.480Z,10.04
2018-04-01T10:43:32.626Z,10.00
2018-04-01T10:44:32.480Z,9.88
2018-04-01T10:45:32.479Z,9.96
2018-04-01T10:46:32.475Z,9.94
2018-04-01T10:47:32.472Z,9.94
2018-04-01T10:48:32.456Z,10.18
2018-04-01T10:49:32.478Z,10.18
2018-04-01T10:50:32.424Z,10.32
2018-04-01T10:52:54.630Z,9.97
2018-04-01T10:53:54.601Z,9.83
2018-04-01T10:54:54.611Z,9.97
2018-04-01T10:55:54.644Z,9.86
2018-04-01T10:56:54.688Z,9.96
2018-04-01T10:58:03.193Z,9.93
2018-04-01T10:59:48.973Z,9.63
2018-04-01T11:00:48.956Z,9.82
2018-04-01T11:01:48.984Z,9.81
2018-04-01T11:02:49.023Z,9.85
2018-04-01T11:03:49.035Z,9.81
2018-04-01T11:04:48.934Z,9.94
2018-04-01T11:07:10.001Z,9.43
2018-04-01T11:08:09.989Z,9.42
2018-04-01T11:09:10.021Z,9.49
2018-04-01T11:10:10.016Z,9.56
2018-04-01T11:11:09.950Z,9.31
2018-04-01T11:12:09.919Z,9.45
2018-04-01T11:13:09.948Z,9.45
2018-04-01T11:14:09.920Z,9.71
2018-04-01T11:15:09.937Z,9.68
2018-04-01T11:16:09.910Z,9.75
2018-04-01T11:17:09.923Z,9.81
2018-04-01T11:18:09.884Z,9.60
2018-04-01T11:19:09.902Z,9.45
2018-04-01T11:20:09.923Z,9.58
2018-04-01T11:21:09.883Z,9.53
2018-04-01T11:22:09.877Z,9.61
2018-04-01T11:23:09.885Z,9.60
2018-04-01T11:24:09.915Z,9.30
2018-04-01T11:25:09.900Z,9.57
2018-04-01T11:26:09.847Z,9.58
2018-04-01T11:27:09.836Z,9.70
2018-04-01T11:28:09.833Z,9.75
2018-04-01T11:29:09.830Z,9.88
2018-04-01T11:30:09.839Z,9.75
2018-04-01T11:31:18.518Z,9.53
2018-04-01T11:33:04.250Z,9.73
2018-04-01T11:34:04.329Z,9.71
2018-04-01T11:35:04.424Z,9.73
2018-04-01T11:36:04.234Z,9.67
2018-04-01T11:37:04.191Z,9.67
2018-04-01T11:39:25.324Z,9.79
2018-04-01T11:40:25.256Z,9.85
2018-04-01T11:42:18.921Z,9.97
2018-04-01T11:43:18.848Z,9.94
2018-04-01T11:44:18.929Z,9.75
2018-04-01T11:45:18.851Z,9.71
2018-04-01T11:46:18.893Z,9.66
2018-04-01T11:47:18.873Z,9.61
2018-04-01T11:48:18.799Z,9.71
2018-04-01T11:49:18.828Z,9.85
2018-04-01T11:50:18.787Z,9.78
2018-04-01T11:51:18.790Z,9.78
2018-04-01T11:52:18.780Z,9.78
2018-04-01T11:53:18.804Z,9.57
2018-04-01T11:54:18.790Z,9.63
2018-04-01T11:55:18.772Z,9.53
2018-04-01T11:56:18.764Z,9.58
2018-04-01T11:57:18.799Z,9.68
2018-04-01T11:58:18.748Z,9.66
2018-04-01T11:59:18.755Z,9.64
2018-04-01T12:00:18.742Z,9.61
2018-04-01T12:01:18.762Z,9.53
2018-04-01T12:02:18.770Z,9.71
2018-04-01T12:03:18.755Z,9.75
2018-04-01T12:04:18.725Z,9.68
2018-04-01T12:05:18.751Z,9.61
2018-04-01T12:06:18.726Z,9.73
2018-04-01T12:07:18.753Z,9.76
2018-04-01T12:08:18.714Z,9.63
2018-04-01T12:09:18.708Z,9.61
2018-04-01T12:12:12.408Z,9.75
2018-04-01T12:13:12.364Z,9.66
2018-04-01T12:14:12.363Z,9.75
2018-04-01T12:15:12.379Z,9.75
2018-04-01T12:16:21.711Z,9.76
2018-04-01T12:18:05.878Z,9.94
2018-04-01T12:19:05.760Z,10.04
2018-04-01T12:20:05.766Z,10.03
2018-04-01T12:21:05.741Z,10.19
2018-04-01T12:22:05.782Z,10.22
2018-04-01T12:23:05.685Z,10.04
2018-04-01T12:24:05.772Z,9.82
2018-04-01T12:25:05.715Z,10.01
2018-04-01T12:26:05.709Z,10.25
2018-04-01T12:27:05.721Z,10.18
2018-04-01T12:28:05.686Z,9.96
2018-04-01T12:29:14.335Z,10.22
2018-04-01T12:30:59.093Z,10.04
2018-04-01T12:32:08.752Z,10.07
2018-04-01T12:34:00.188Z,10.06
2018-04-01T12:36:13.494Z,9.75
2018-04-01T12:37:13.528Z,9.73
2018-04-01T12:38:13.539Z,9.94
2018-04-01T12:39:13.469Z,9.89
2018-04-01T12:40:13.456Z,9.76
2018-04-01T12:41:13.478Z,9.73
2018-04-01T12:42:13.454Z,9.78
2018-04-01T12:43:13.417Z,9.88
2018-04-01T12:45:35.479Z,10.25
